Time;durP1;ratioP1;P1;durP2;ratioP2;P2;SDS_P1;SDS_P2;PMS_P1;PMS_P2;Temp;Humidity;BMP_temperature;BMP_pressure;BME280_temperature;BME280_humidity;BME280_pressure;Samples;Min_cycle;Max_cycle;Signal;HPM_P1;HPM_P2
2022/06/12 00:00:24;;;;;;;;;;;13.80;99.90;;;;;;5013705;28;20004;-80
2022/06/12 00:02:50;;;;;;;;;;;;;;;;;;5008894;28;19914;-81
2022/06/12 00:05:16;;;;;;;;;;;13.90;99.90;;;;;;5010266;28;19988;-81
2022/06/12 00:07:42;;;;;;;;;;;13.80;99.90;;;;;;5014799;28;19909;-81
2022/06/12 00:10:08;;;;;;;;;;;;;;;;;;5013049;28;19925;-80
2022/06/12 00:12:34;;;;;;;;;;;;;;;;;;5009685;28;19918;-81
2022/06/12 00:15:00;;;;;;;;;;;;;;;;;;5011723;28;20000;-82
2022/06/12 00:17:25;;;;;;;;;;;12.80;99.90;;;;;;5015407;28;19917;-81
2022/06/12 00:19:51;;;;;;;;;;;;;;;;;;5016938;28;19909;-82
2022/06/12 00:22:17;;;;;;;;;;;;;;;;;;5017967;28;20582;-81
2022/06/12 00:24:42;;;;;;;;;;;13.80;99.90;;;;;;5012852;28;19910;-81
2022/06/12 00:27:08;;;;;;;;;;;13.30;99.90;;;;;;5014368;28;20016;-81
2022/06/12 00:29:34;;;;;;;;;;;;;;;;;;5010195;28;19917;-81
2022/06/12 00:32:01;;;;;;;;;;;;;;;;;;5009175;28;19963;-82
2022/06/12 00:34:27;;;;;;;;;;;;;;;;;;5011965;28;19913;-82
2022/06/12 00:36:53;;;;;;;;;;;;;;;;;;5011809;28;20284;-81
2022/06/12 00:39:19;;;;;;;;;;;;;;;;;;5011979;28;19909;-81
2022/06/12 00:41:45;;;;;;;;;;;;;;;;;;5015093;28;20329;-81
2022/06/12 00:44:10;;;;;;;;;;;;;;;;;;5014279;28;19968;-83
2022/06/12 00:46:36;;;;;;;;;;;;;;;;;;5013296;28;19924;-82
2022/06/12 00:49:03;;;;;;;;;;;;;;;;;;5018791;28;19963;-81
2022/06/12 00:51:28;;;;;;;;;;;;;;;;;;5022760;28;19918;-81
2022/06/12 00:53:56;;;;;;;;;;;12.50;99.90;;;;;;5019891;28;20427;-82
2022/06/12 00:56:21;;;;;;;;;;;;;;;;;;5015992;28;19920;-82
2022/06/12 00:58:47;;;;;;;;;;;;;;;;;;5020641;28;19918;-82
2022/06/12 01:01:13;;;;;;;;;;;;;;;;;;5015248;28;19933;-81
2022/06/12 01:06:33;;;;;;;;;;;;;;;;;;5021514;28;19913;-82
2022/06/12 01:06:34;;;;;;;;;;;13.50;99.90;;;;;;5023136;28;19917;-80
2022/06/12 01:09:00;;;;;;;;;;;;;;;;;;5015502;28;19967;-81
2022/06/12 01:11:25;;;;;;;;;;;;;;;;;;5016758;28;19992;-82
2022/06/12 01:13:51;;;;;;;;;;;;;;;;;;5017640;28;19910;-84
2022/06/12 01:16:17;;;;;;;;;;;;;;;;;;5018802;28;19910;-83
2022/06/12 01:18:43;;;;;;;;;;;;;;;;;;5019197;28;19940;-83
2022/06/12 01:21:10;;;;;;;;;;;;;;;;;;5011934;28;20016;-83
2022/06/12 01:23:36;;;;;;;;;;;;;;;;;;5017209;28;19924;-82
2022/06/12 01:26:02;;;;;;;;;;;;;;;;;;5022168;28;19909;-83
2022/06/12 01:28:29;;;;;;;;;;;;;;;;;;5024276;28;19959;-82
2022/06/12 01:31:07;;;;;;;;;;;13.30;99.90;;;;;;5013448;28;19917;-83
2022/06/12 01:33:41;;;;;;;;;;;13.20;99.90;;;;;;5019184;28;20535;-82
2022/06/12 01:36:11;;;;;;;;;;;12.30;99.90;;;;;;5015762;28;19905;-83
2022/06/12 01:38:37;;;;;;;;;;;;;;;;;;5017624;28;19919;-84
2022/06/12 01:41:07;;;;;;;;;;;13.20;99.90;;;;;;5020797;28;19964;-83
2022/06/12 01:43:35;;;;;;;;;;;;;;;;;;5012554;28;19906;-84
2022/06/12 01:46:10;;;;;;;;;;;13.30;99.90;;;;;;5017935;28;19925;-85
2022/06/12 01:48:37;;;;;;;;;;;;;;;;;;5019877;28;19913;-84
2022/06/12 01:51:02;;;;;;;;;;;;;;;;;;5012916;28;19921;-84
2022/06/12 01:53:31;;;;;;;;;;;13.10;99.90;;;;;;5019637;28;19913;-85
2022/06/12 01:55:57;;;;;;;;;;;;;;;;;;5017622;28;19920;-84
2022/06/12 01:58:23;;;;;;;;;;;;;;;;;;5021095;28;20381;-84
2022/06/12 02:00:54;;;;;;;;;;;13.50;99.90;;;;;;5021681;28;19910;-85
2022/06/12 02:03:20;;;;;;;;;;;;;;;;;;5024259;28;19901;-84
2022/06/12 02:05:45;;;;;;;;;;;;;;;;;;5034583;28;19936;-84
2022/06/12 02:08:16;;;;;;;;;;;13.20;99.90;;;;;;5031964;28;19928;-85
2022/06/12 02:10:42;;;;;;;;;;;;;;;;;;5019777;28;19957;-84
2022/06/12 02:13:14;;;;;;;;;;;;;;;;;;5021390;28;19928;-84
2022/06/12 02:15:40;;;;;;;;;;;;;;;;;;5017331;28;20432;-84
2022/06/12 02:18:06;;;;;;;;;;;;;;;;;;5014794;28;19913;-84
2022/06/12 02:20:32;;;;;;;;;;;;;;;;;;5011978;28;20319;-84
2022/06/12 02:22:58;;;;;;;;;;;13.10;99.90;;;;;;5014371;28;19962;-84
2022/06/12 02:25:24;;;;;;;;;;;;;;;;;;5015320;28;19909;-84
2022/06/12 02:27:50;;;;;;;;;;;;;;;;;;5014969;28;19914;-84
2022/06/12 02:30:16;;;;;;;;;;;;;;;;;;5011757;28;19909;-83
2022/06/12 02:33:00;;;;;;;;;;;11.90;99.90;;;;;;5014710;28;19928;-84
2022/06/12 02:35:25;;;;;;;;;;;;;;;;;;5011950;28;19947;-83
2022/06/12 02:37:51;;;;;;;;;;;;;;;;;;5015728;28;19909;-84
2022/06/12 02:40:17;;;;;;;;;;;;;;;;;;5010844;28;19969;-83
2022/06/12 02:42:43;;;;;;;;;;;;;;;;;;5011700;28;20507;-83
2022/06/12 02:45:09;;;;;;;;;;;;;;;;;;5013724;28;19915;-83
2022/06/12 02:47:36;;;;;;;;;;;11.80;99.90;;;;;;5018543;28;19913;-82
2022/06/12 02:50:01;;;;;;;;;;;;;;;;;;5013041;28;19910;-83
2022/06/12 02:52:27;;;;;;;;;;;;;;;;;;5024508;28;20279;-83
2022/06/12 02:54:53;;;;;;;;;;;;;;;;;;5021269;28;19897;-83
2022/06/12 02:57:19;;;;;;;;;;;;;;;;;;5013066;28;19918;-83
2022/06/12 02:59:46;;;;;;;;;;;;;;;;;;5011291;28;19917;-82
2022/06/12 03:02:11;;;;;;;;;;;;;;;;;;5011708;28;20048;-82
2022/06/12 03:04:37;;;;;;;;;;;;;;;;;;5004438;28;19941;-82
2022/06/12 03:07:03;;;;;;;;;;;;;;;;;;5010880;28;20386;-82
2022/06/12 03:09:29;;;;;;;;;;;;;;;;;;5015278;28;19918;-82
2022/06/12 03:11:55;;;;;;;;;;;;;;;;;;5010248;28;20016;-82
2022/06/12 03:14:22;;;;;;;;;;;11.80;99.90;;;;;;5009323;28;19964;-82
2022/06/12 03:16:47;;;;;;;;;;;;;;;;;;5015722;28;19925;-83
2022/06/12 03:19:13;;;;;;;;;;;;;;;;;;5014497;28;19913;-83
2022/06/12 03:21:39;;;;;;;;;;;12.90;99.90;;;;;;5016311;28;19910;-82
2022/06/12 03:24:05;;;;;;;;;;;;;;;;;;5014425;28;19940;-82
2022/06/12 03:26:31;;;;;;;;;;;;;;;;;;5007540;28;19909;-82
2022/06/12 03:28:56;;;;;;;;;;;;;;;;;;5008731;28;19913;-83
2022/06/12 03:31:22;;;;;;;;;;;;;;;;;;5009069;28;20028;-82
2022/06/12 03:33:48;;;;;;;;;;;;;;;;;;5012867;28;20873;-82
2022/06/12 03:36:35;;;;;;;;;;;11.80;99.90;;;;;;5008782;28;19910;-83
2022/06/12 03:39:01;;;;;;;;;;;;;;;;;;5015426;28;20017;-83
2022/06/12 03:41:27;;;;;;;;;;;;;;;;;;5012092;28;19929;-85
2022/06/12 03:43:52;;;;;;;;;;;;;;;;;;5013029;28;20561;-83
2022/06/12 03:46:21;;;;;;;;;;;11.90;99.90;;;;;;5010617;28;19917;-82
2022/06/12 03:48:49;;;;;;;;;;;12.50;99.90;;;;;;5014964;28;20071;-83
2022/06/12 03:51:15;;;;;;;;;;;;;;;;;;5017903;28;19925;-82
2022/06/12 03:53:41;;;;;;;;;;;;;;;;;;5018083;28;19917;-82
2022/06/12 03:58:51;;;;;;;;;;;;;;;;;;5012023;28;19936;-82
2022/06/12 04:01:17;;;;;;;;;;;11.90;99.90;;;;;;5012612;28;19988;-83
2022/06/12 04:03:43;;;;;;;;;;;12.40;99.90;;;;;;5012904;28;20333;-83
2022/06/12 04:06:09;;;;;;;;;;;;;;;;;;5026715;28;19909;-83
2022/06/12 04:08:37;;;;;;;;;;;12.10;99.90;;;;;;5021206;28;20023;-83
2022/06/12 04:11:03;;;;;;;;;;;12.00;99.90;;;;;;5020843;28;19993;-83
2022/06/12 04:13:29;;;;;;;;;;;;;;;;;;5014431;28;19917;-83
2022/06/12 04:15:55;;;;;;;;;;;;;;;;;;5017908;28;20365;-83
2022/06/12 04:18:21;;;;;;;;;;;;;;;;;;5020066;28;19909;-83
2022/06/12 04:20:58;;;;;;;;;;;13.10;99.90;;;;;;5020714;28;20286;-83
2022/06/12 04:23:24;;;;;;;;;;;;;;;;;;5024145;28;19917;-83
2022/06/12 04:25:50;;;;;;;;;;;;;;;;;;5013846;28;19913;-84
2022/06/12 04:28:16;;;;;;;;;;;;;;;;;;5020334;28;19917;-83
2022/06/12 04:30:42;;;;;;;;;;;;;;;;;;5022144;28;20492;-82
2022/06/12 04:33:10;;;;;;;;;;;12.10;99.90;;;;;;5017995;28;19921;-82
2022/06/12 04:35:36;;;;;;;;;;;;;;;;;;5020094;28;19914;-82
2022/06/12 04:38:02;;;;;;;;;;;;;;;;;;5019625;28;19941;-82
2022/06/12 04:40:28;;;;;;;;;;;;;;;;;;5020909;28;19909;-83
2022/06/12 04:42:53;;;;;;;;;;;12.10;99.90;;;;;;5014369;28;19975;-82
2022/06/12 04:45:19;;;;;;;;;;;;;;;;;;5020312;28;19949;-82
2022/06/12 04:47:45;;;;;;;;;;;;;;;;;;5014830;28;19917;-82
2022/06/12 04:50:12;;;;;;;;;;;;;;;;;;5015123;28;19913;-81
2022/06/12 04:52:38;;;;;;;;;;;;;;;;;;5020678;28;20420;-82
2022/06/12 04:55:03;;;;;;;;;;;;;;;;;;5012415;28;19925;-82
2022/06/12 04:57:29;;;;;;;;;;;13.90;99.90;;;;;;5014446;28;19959;-82
2022/06/12 04:59:55;;;;;;;;;;;;;;;;;;5022063;28;19913;-83
2022/06/12 05:02:23;;;;;;;;;;;14.10;99.90;;;;;;5017252;28;19910;-81
2022/06/12 05:04:49;;;;;;;;;;;;;;;;;;5015589;28;19913;-83
2022/06/12 05:07:15;;;;;;;;;;;;;;;;;;5021783;28;19944;-82
2022/06/12 05:09:41;;;;;;;;;;;;;;;;;;5023648;28;19917;-83
2022/06/12 05:12:07;;;;;;;;;;;;;;;;;;5021419;28;19932;-83
2022/06/12 05:14:32;;;;;;;;;;;14.20;99.90;;;;;;5011114;28;19992;-82
2022/06/12 05:16:59;;;;;;;;;;;14.40;99.90;;;;;;5024129;28;19973;-82
2022/06/12 05:19:25;;;;;;;;;;;;;;;;;;5024629;28;19925;-82
2022/06/12 05:21:51;;;;;;;;;;;;;;;;;;5025637;28;19917;-81
2022/06/12 05:24:17;;;;;;;;;;;14.50;99.90;;;;;;5015650;28;19913;-83
2022/06/12 05:26:42;;;;;;;;;;;;;;;;;;5021862;28;19917;-83
2022/06/12 05:29:08;;;;;;;;;;;;;;;;;;5016909;28;19944;-83
2022/06/12 05:31:34;;;;;;;;;;;15.70;99.90;;;;;;5013751;28;20862;-82
2022/06/12 05:34:00;;;;;;;;;;;;;;;;;;5016489;28;19917;-83
2022/06/12 05:36:26;;;;;;;;;;;;;;;;;;5021158;28;19917;-83
2022/06/12 05:38:52;;;;;;;;;;;;;;;;;;5014495;28;19920;-81
2022/06/12 05:41:18;;;;;;;;;;;;;;;;;;5012964;28;20039;-81
2022/06/12 05:43:44;;;;;;;;;;;;;;;;;;5015574;28;19916;-81
2022/06/12 05:46:11;;;;;;;;;;;15.10;99.90;;;;;;5016550;28;19917;-81
2022/06/12 05:48:36;;;;;;;;;;;;;;;;;;5006756;28;19917;-81
2022/06/12 05:51:02;;;;;;;;;;;;;;;;;;5005797;28;20493;-82
2022/06/12 05:53:28;;;;;;;;;;;;;;;;;;5018051;28;19913;-81
2022/06/12 05:55:54;;;;;;;;;;;;;;;;;;5019311;28;20008;-81
2022/06/12 05:58:20;;;;;;;;;;;;;;;;;;5016906;28;19913;-81
2022/06/12 06:00:46;;;;;;;;;;;17.30;99.90;;;;;;5014342;28;19972;-80
2022/06/12 06:03:12;;;;;;;;;;;17.80;99.90;;;;;;5015725;28;19917;-82
2022/06/12 06:05:38;;;;;;;;;;;18.40;99.90;;;;;;5012532;28;19925;-81
2022/06/12 06:08:04;;;;;;;1.65;1.13;;;;;;;;;;5004666;28;19920;-81
2022/06/12 06:10:30;;;;;;;7.50;1.40;;;;;;;;;;5005352;28;20022;-82
2022/06/12 06:12:56;;;;;;;;;;;22.10;99.90;;;;;;5013706;28;20037;-81
2022/06/12 06:15:22;;;;;;;1.90;1.17;;;24.10;99.90;;;;;;5012530;28;19920;-84
2022/06/12 06:17:49;;;;;;;3.85;1.35;;;23.40;99.90;;;;;;5006174;28;20022;-82
2022/06/12 06:20:17;;;;;;;;;;;23.90;99.40;;;;;;5005709;28;20706;-81
2022/06/12 06:22:42;;;;;;;;;;;24.60;98.30;;;;;;5009698;28;19920;-81
2022/06/12 06:25:09;;;;;;;1.10;0.77;;;26.30;99.90;;;;;;5012918;28;19913;-82
2022/06/12 06:27:35;;;;;;;;;;;27.50;94.00;;;;;;5010754;28;20080;-81
2022/06/12 06:30:01;;;;;;;1.13;0.80;;;;;;;;;;5015068;28;20020;-82
2022/06/12 06:32:27;;;;;;;0.50;0.40;;;;;;;;;;5006224;28;20052;-83
2022/06/12 06:34:53;;;;;;;1.55;0.77;;;;;;;;;;5010129;28;20561;-82
2022/06/12 06:37:19;;;;;;;1.30;0.93;;;;;;;;;;5010804;28;20038;-81
2022/06/12 06:39:45;;;;;;;1.65;1.10;;;;;;;;;;5014633;28;20033;-82
2022/06/12 06:42:11;;;;;;;2.35;0.70;;;;;;;;;;5011885;28;20038;-82
2022/06/12 06:47:36;;;;;;;;;;;33.60;59.80;;;;;;5051073;28;20469;-82
2022/06/12 06:50:05;;;;;;;2.47;0.60;;;34.00;58.00;;;;;;5050972;28;19948;-81
2022/06/12 06:52:31;;;;;;;4.22;0.63;;;;;;;;;;5048450;28;20504;-81
2022/06/12 06:55:00;;;;;;;1.23;0.60;;;;;;;;;;5049018;28;20040;-82
2022/06/12 06:57:27;;;;;;;1.55;0.68;;;;;;;;;;5044518;28;20051;-83
2022/06/12 06:59:53;;;;;;;2.53;0.75;;;;;;;;;;5055018;28;20017;-84
2022/06/12 07:02:19;;;;;;;1.20;0.60;;;;;;;;;;5047946;28;20084;-84
2022/06/12 07:04:45;;;;;;;1.45;0.93;;;35.90;51.90;;;;;;5052231;28;20473;-81
2022/06/12 07:07:11;;;;;;;1.58;0.73;;;;;;;;;;5051310;28;20091;-81
2022/06/12 07:09:39;;;;;;;1.38;0.88;;;35.70;61.40;;;;;;5055482;28;20033;-83
2022/06/12 07:12:05;;;;;;;0.70;0.47;;;36.90;51.20;;;;;;5051950;28;20029;-80
2022/06/12 07:14:31;;;;;;;1.33;0.43;;;;;;;;;;5053102;28;20085;-83
2022/06/12 07:17:00;;;;;;;1.45;0.50;;;37.30;49.20;;;;;;5052260;28;20030;-84
2022/06/12 07:19:26;;;;;;;;;;;36.70;49.60;;;;;;5063533;28;20036;-79
2022/06/12 07:21:52;;;;;;;4.10;0.50;;;;;;;;;;5062216;28;19902;-80
2022/06/12 07:24:18;;;;;;;0.70;0.40;;;;;;;;;;5066057;28;20009;-82
2022/06/12 07:26:46;;;;;;;3.25;0.93;;;37.20;48.90;;;;;;5060441;28;20037;-80
2022/06/12 07:29:13;;;;;;;2.80;0.70;;;38.10;47.90;;;;;;5049241;28;20318;-81
2022/06/12 07:31:39;;;;;;;3.50;0.77;;;;;;;;;;5044391;28;20037;-81
2022/06/12 07:34:06;;;;;;;1.73;0.82;;;;;;;;;;5053167;28;20017;-80
2022/06/12 07:36:32;;;;;;;3.70;0.80;;;;;;;;;;5052821;28;20089;-82
2022/06/12 07:38:58;;;;;;;5.68;0.77;;;;;;;;;;5049736;28;20034;-82
2022/06/12 07:41:24;;;;;;;0.80;0.60;;;;;;;;;;5049514;28;20040;-82
2022/06/12 07:43:50;;;;;;;2.30;0.65;;;;;;;;;;5054473;28;20098;-82
2022/06/12 07:46:18;;;;;;;2.13;0.47;;;37.10;44.30;;;;;;5052097;28;20106;-81
2022/06/12 07:48:45;;;;;;;0.95;0.60;;;;;;;;;;5054055;28;20363;-80
2022/06/12 07:51:13;;;;;;;1.50;0.93;;;;;;;;;;5052200;28;20056;-82
2022/06/12 07:53:40;;;;;;;1.25;0.73;;;35.30;43.60;;;;;;5053387;28;20059;-81
2022/06/12 07:56:08;;;;;;;1.33;0.70;;;35.60;44.60;;;;;;5055851;28;20021;-81
2022/06/12 07:58:35;;;;;;;1.20;0.60;;;;;;;;;;5033256;28;20051;-80
2022/06/12 08:01:04;;;;;;;1.33;0.50;;;35.70;45.00;;;;;;5037696;28;20040;-81
2022/06/12 08:03:30;;;;;;;2.92;0.90;;;;;;;;;;5031861;28;20124;-84
2022/06/12 08:05:56;;;;;;;0.90;0.52;;;;;;;;;;5030012;28;20041;-82
2022/06/12 08:08:22;;;;;;;6.50;0.70;;;;;;;;;;5034207;28;20052;-82
2022/06/12 08:10:48;;;;;;;0.50;0.43;;;;;;;;;;5029508;28;20052;-82
2022/06/12 08:13:14;;;;;;;1.48;0.47;;;34.40;45.40;;;;;;5031686;28;20503;-81
2022/06/12 08:15:44;;;;;;;1.00;0.47;;;33.70;45.30;;;;;;5028915;28;20030;-81
2022/06/12 08:18:11;;;;;;;0.50;0.38;;;;;;;;;;5031582;28;20116;-81
2022/06/12 08:20:38;;;;;;;1.40;0.52;;;33.70;46.50;;;;;;5031738;28;20041;-82
2022/06/12 08:23:37;;;;;;;0.82;0.47;;;33.10;45.40;;;;;;5042245;28;20063;-82
2022/06/12 08:26:10;;;;;;;;;;;33.00;46.00;;;;;;5033189;28;20037;-82
2022/06/12 08:28:37;;;;;;;;;;;32.40;47.00;;;;;;5036971;28;20307;-82
2022/06/12 08:31:05;;;;;;;;;;;32.40;47.50;;;;;;5030113;28;19912;-81
2022/06/12 08:33:31;;;;;;;;;;;31.70;49.20;;;;;;5030257;28;19937;-82
2022/06/12 08:35:56;;;;;;;;;;;31.80;47.90;;;;;;5031770;28;19909;-81
2022/06/12 08:38:22;;;;;;;;;;;33.00;44.50;;;;;;5039561;28;20274;-83
2022/06/12 08:41:03;;;;;;;;;;;33.60;45.90;;;;;;5035872;28;19916;-80
2022/06/12 08:43:36;;;;;;;;;;;34.90;42.70;;;;;;5030790;28;19940;-83
2022/06/12 08:46:05;;;;;;;;;;;36.90;42.10;;;;;;5034006;28;19925;-80
2022/06/12 08:48:39;;;;;;;;;;;37.90;37.80;;;;;;5035958;28;20353;-82
2022/06/12 08:51:21;;;;;;;0.95;0.55;;;40.00;35.10;;;;;;5032128;28;19916;-82
2022/06/12 08:53:58;;;;;;;0.73;0.55;;;40.60;44.40;;;;;;5036198;28;20022;-82
2022/06/12 08:56:41;;;;;;;3.47;0.40;;;41.10;35.20;;;;;;5032881;28;20036;-82
2022/06/12 08:59:30;;;;;;;0.45;0.28;;;41.80;35.10;;;;;;5037523;28;20039;-81
2022/06/12 09:01:56;;;;;;;0.68;0.50;;;;;;;;;;5028854;28;20033;-82
2022/06/12 09:04:23;;;;;;;0.80;0.30;;;41.80;37.00;;;;;;5038024;28;20068;-82
2022/06/12 09:06:57;;;;;;;1.10;0.47;;;42.40;30.40;;;;;;5035801;28;20038;-81
2022/06/12 09:09:25;;;;;;;0.60;0.40;;;42.50;39.50;;;;;;5033586;28;20033;-83
2022/06/12 09:11:57;;;;;;;1.38;0.40;;;43.00;40.70;;;;;;5036997;28;20025;-81
2022/06/12 09:14:33;;;;;;;0.93;0.25;;;42.90;34.40;;;;;;5029809;28;20026;-83
2022/06/12 09:17:31;;;;;;;1.02;0.30;;;42.90;40.70;;;;;;5042588;28;20456;-81
2022/06/12 09:20:01;;;;;;;0.50;0.20;;;42.60;41.40;;;;;;5037913;28;20037;-83
2022/06/12 09:23:12;;;;;;;0.25;0.20;;;42.50;30.80;;;;;;5035089;28;20026;-82
2022/06/12 09:25:46;;;;;;;0.50;0.40;;;41.70;36.00;;;;;;5036900;28;20029;-82
2022/06/12 09:28:23;;;;;;;2.53;0.28;;;40.50;34.60;;;;;;5035698;28;20087;-82
2022/06/12 09:30:54;;;;;;;;;;;40.50;35.40;;;;;;5036092;28;20026;-83
2022/06/12 09:33:34;;;;;;;;;;;39.60;36.30;;;;;;5036292;28;19939;-84
2022/06/12 09:36:02;;;;;;;;;;;35.70;39.30;;;;;;5041940;28;20024;-82
2022/06/12 09:38:37;;;;;;;;;;;34.70;41.60;;;;;;5033482;28;19916;-85
2022/06/12 09:41:18;;;;;;;;;;;33.90;42.60;;;;;;5037298;28;20388;-84
2022/06/12 09:44:10;;;;;;;;;;;33.60;42.00;;;;;;5035675;28;19917;-83
2022/06/12 09:46:36;;;;;;;;;;;31.40;44.90;;;;;;5032857;28;19940;-82
2022/06/12 09:49:13;;;;;;;;;;;31.50;44.60;;;;;;5035891;28;19951;-83
2022/06/12 09:51:47;;;;;;;;;;;31.00;45.00;;;;;;5032360;28;19917;-83
2022/06/12 09:54:13;;;;;;;;;;;31.30;50.50;;;;;;5030946;28;19914;-85
2022/06/12 09:56:49;;;;;;;;;;;30.90;50.00;;;;;;5036416;28;19952;-84
2022/06/12 09:59:20;;;;;;;;;;;29.70;50.00;;;;;;5039902;28;20203;-84
2022/06/12 10:01:49;;;;;;;;;;;30.50;49.80;;;;;;5034048;28;19912;-81
2022/06/12 10:04:21;;;;;;;;;;;30.40;49.50;;;;;;5032408;28;19960;-82
2022/06/12 10:06:51;;;;;;;;;;;30.40;50.40;;;;;;5036459;28;19921;-83
2022/06/12 10:09:37;;;;;;;;;;;29.50;49.60;;;;;;5032644;28;19905;-82
2022/06/12 10:12:08;;;;;;;;;;;30.00;53.30;;;;;;5026822;28;20250;-82
2022/06/12 10:14:36;;;;;;;;;;;29.60;52.00;;;;;;5035081;28;19972;-82
2022/06/12 10:17:03;;;;;;;;;;;30.10;53.30;;;;;;5036852;28;19917;-80
2022/06/12 10:19:43;;;;;;;;;;;29.00;54.80;;;;;;5032246;28;19920;-83
2022/06/12 10:22:13;;;;;;;;;;;29.10;54.20;;;;;;5033169;28;20388;-85
2022/06/12 10:24:39;;;;;;;;;;;29.10;53.00;;;;;;5038675;28;19927;-82
2022/06/12 10:27:06;;;;;;;;;;;29.60;53.60;;;;;;5035096;28;19921;-84
2022/06/12 10:29:47;;;;;;;;;;;29.20;51.40;;;;;;5035286;28;19913;-82
2022/06/12 10:32:17;;;;;;;;;;;29.10;50.90;;;;;;5034842;28;19913;-83
2022/06/12 10:34:43;;;;;;;;;;;30.20;50.20;;;;;;5031868;28;19924;-84
2022/06/12 10:37:15;;;;;;;;;;;29.20;50.30;;;;;;5034033;28;19913;-83
2022/06/12 10:39:41;;;;;;;;;;;29.20;51.70;;;;;;5027407;28;19967;-84
2022/06/12 10:42:08;;;;;;;;;;;29.80;52.70;;;;;;5031623;28;19913;-83
2022/06/12 10:44:38;;;;;;;;;;;28.50;51.20;;;;;;5029628;28;19917;-83
2022/06/12 10:47:14;;;;;;;;;;;28.50;51.90;;;;;;5040767;28;19920;-82
2022/06/12 10:49:39;;;;;;;;;;;28.40;53.10;;;;;;5015896;28;20431;-85
2022/06/12 10:52:07;;;;;;;;;;;28.80;53.70;;;;;;5023582;28;19913;-82
2022/06/12 10:54:32;;;;;;;;;;;30.10;52.70;;;;;;5029807;28;19935;-84
2022/06/12 10:57:10;;;;;;;;;;;29.20;51.10;;;;;;5029196;28;19995;-83
2022/06/12 10:59:38;;;;;;;;;;;30.30;53.10;;;;;;5030961;28;19936;-82
2022/06/12 11:02:06;;;;;;;;;;;29.20;49.40;;;;;;5019353;28;19913;-82
2022/06/12 11:04:41;;;;;;;;;;;29.80;50.50;;;;;;5030449;28;20645;-82
2022/06/12 11:07:24;;;;;;;;;;;28.40;50.30;;;;;;5031322;28;19936;-81
2022/06/12 11:09:59;;;;;;;;;;;29.50;51.80;;;;;;5032211;28;19909;-82
2022/06/12 11:12:27;;;;;;;;;;;28.90;52.40;;;;;;5030520;28;19917;-83
2022/06/12 11:15:12;;;;;;;;;;;28.40;51.20;;;;;;5027717;28;19909;-84
2022/06/12 11:17:44;;;;;;;;;;;28.70;51.70;;;;;;5029288;28;20381;-84
2022/06/12 11:20:20;;;;;;;;;;;28.20;51.30;;;;;;5020467;28;19927;-84
2022/06/12 11:22:50;;;;;;;;;;;29.10;51.30;;;;;;5025676;28;19925;-85
2022/06/12 11:25:22;;;;;;;;;;;28.50;53.00;;;;;;5032274;28;19915;-80
2022/06/12 11:28:10;;;;;;;;;;;28.00;54.00;;;;;;5033363;28;19920;-84
2022/06/12 11:30:35;;;;;;;;;;;29.00;56.70;;;;;;5027632;28;19945;-83
2022/06/12 11:33:16;;;;;;;;;;;28.30;53.80;;;;;;5022490;28;19939;-84
2022/06/12 11:35:41;;;;;;;;;;;28.40;52.90;;;;;;5026919;28;19917;-83
2022/06/12 11:38:07;;;;;;;;;;;28.40;52.60;;;;;;5026817;28;19942;-81
2022/06/12 11:40:42;;;;;;;;;;;28.60;52.00;;;;;;5023500;28;19913;-81
2022/06/12 11:43:07;;;;;;;;;;;28.80;51.20;;;;;;5024038;28;19920;-80
2022/06/12 11:45:33;;;;;;;;;;;29.60;51.40;;;;;;5026633;28;19921;-81
2022/06/12 11:47:58;;;;;;;;;;;28.50;50.20;;;;;;5025949;28;19924;-83
2022/06/12 11:50:35;;;;;;;;;;;28.40;49.00;;;;;;5028264;28;21177;-81
2022/06/12 11:53:08;;;;;;;;;;;29.60;51.20;;;;;;5025937;28;19913;-81
2022/06/12 11:55:40;;;;;;;;;;;28.20;51.00;;;;;;5027631;28;20040;-82
2022/06/12 11:58:08;;;;;;;;;;;28.60;52.10;;;;;;5024684;28;19912;-81
2022/06/12 12:00:34;;;;;;;;;;;28.10;51.60;;;;;;5025371;28;19915;-80
2022/06/12 12:03:08;;;;;;;;;;;27.60;51.00;;;;;;5028620;28;19917;-82
2022/06/12 12:05:50;;;;;;;;;;;27.50;52.40;;;;;;5024781;28;20812;-83
2022/06/12 12:08:30;;;;;;;;;;;27.20;55.00;;;;;;5027008;28;19914;-82
2022/06/12 12:10:58;;;;;;;;;;;27.20;53.30;;;;;;5031268;28;19913;-82
2022/06/12 12:13:28;;;;;;;;;;;28.10;55.60;;;;;;5033600;28;20561;-84
2022/06/12 12:15:55;;;;;;;;;;;27.70;56.20;;;;;;5029377;28;19914;-81
2022/06/12 12:18:37;;;;;;;;;;;27.60;53.60;;;;;;5029982;28;20211;-81
2022/06/12 12:21:04;;;;;;;;;;;28.90;54.80;;;;;;5036992;28;19913;-82
2022/06/12 12:23:30;;;;;;;;;;;27.90;56.30;;;;;;5037267;28;19928;-82
2022/06/12 12:26:01;;;;;;;;;;;27.90;54.40;;;;;;5034920;28;19905;-81
2022/06/12 12:28:28;;;;;;;;;;;;;;;;;;5044943;28;19909;-81
2022/06/12 12:30:56;;;;;;;;;;;29.40;54.30;;;;;;5039065;28;19908;-80
2022/06/12 12:33:22;;;;;;;;;;;28.60;50.80;;;;;;5039221;28;19913;-84
2022/06/12 12:41:37;;;;;;;;;;;29.20;51.90;;;;;;5026869;28;19916;-80
2022/06/12 12:44:03;;;;;;;;;;;28.70;50.10;;;;;;5024407;28;20075;-81
2022/06/12 12:46:44;;;;;;;;;;;29.40;53.00;;;;;;5025276;28;20175;-82
2022/06/12 12:49:19;;;;;;;;;;;28.60;50.30;;;;;;5022616;28;19917;-82
2022/06/12 12:51:46;;;;;;;;;;;28.80;50.70;;;;;;5033643;28;19917;-81
2022/06/12 12:54:16;;;;;;;;;;;28.50;51.40;;;;;;5038318;28;19917;-81
2022/06/12 12:56:53;;;;;;;;;;;29.20;52.20;;;;;;5036212;28;19924;-81
2022/06/12 12:59:19;;;;;;;;;;;28.00;52.70;;;;;;5033210;28;19964;-81
2022/06/12 13:01:48;;;;;;;;;;;27.40;54.00;;;;;;5035440;28;19909;-81
2022/06/12 13:04:18;;;;;;;;;;;27.30;53.20;;;;;;5034761;28;19909;-82
2022/06/12 13:06:46;;;;;;;;;;;27.40;53.80;;;;;;5033474;28;19947;-81
2022/06/12 13:09:20;;;;;;;;;;;27.10;55.00;;;;;;5039281;28;19909;-79
2022/06/12 13:11:52;;;;;;;;;;;27.40;55.80;;;;;;5038788;28;19905;-81
2022/06/12 13:14:23;;;;;;;;;;;27.60;58.10;;;;;;5031195;28;19913;-80
2022/06/12 13:16:55;;;;;;;;;;;27.70;52.50;;;;;;5038076;28;19905;-81
2022/06/12 13:19:34;;;;;;;;;;;27.80;52.60;;;;;;5032777;28;19937;-80
2022/06/12 13:22:11;;;;;;;;;;;28.90;53.70;;;;;;5031321;28;19909;-81
2022/06/12 13:24:45;;;;;;;;;;;29.40;54.10;;;;;;5041553;28;20006;-81
2022/06/12 13:27:17;;;;;;;;;;;29.10;51.80;;;;;;5038031;28;19917;-81
2022/06/12 13:29:44;;;;;;;;;;;28.70;51.80;;;;;;5033142;28;20164;-80
2022/06/12 13:32:18;;;;;;;;;;;29.90;51.10;;;;;;5032969;28;19999;-80
2022/06/12 13:34:52;;;;;;;;;;;28.90;49.40;;;;;;5034340;28;20431;-80
2022/06/12 13:37:17;;;;;;;;;;;28.90;50.60;;;;;;5030915;28;19913;-81
2022/06/12 13:39:46;;;;;;;;;;;29.30;49.80;;;;;;5039154;28;20025;-81
2022/06/12 13:42:14;;;;;;;;;;;28.80;50.50;;;;;;5037761;28;20004;-80
2022/06/12 13:44:41;;;;;;;;;;;29.00;50.00;;;;;;5038438;28;19925;-81
2022/06/12 13:47:19;;;;;;;;;;;30.20;51.20;;;;;;5031525;28;19920;-80
2022/06/12 13:50:04;;;;;;;;;;;29.00;50.50;;;;;;5036053;28;20347;-81
2022/06/12 13:52:51;;;;;;;;;;;29.70;49.20;;;;;;5035478;28;20094;-81
2022/06/12 13:55:29;;;;;;;;;;;30.20;48.90;;;;;;5033698;28;20393;-80
2022/06/12 13:57:58;;;;;;;;;;;30.40;49.00;;;;;;5033023;28;19905;-81
2022/06/12 14:00:29;;;;;;;;;;;30.40;50.00;;;;;;5038746;28;19932;-82
2022/06/12 14:02:55;;;;;;;;;;;29.90;50.10;;;;;;5037292;28;19919;-82
2022/06/12 14:05:21;;;;;;;;;;;;;;;;;;5027196;28;19917;-81
2022/06/12 14:07:48;;;;;;;;;;;30.10;50.20;;;;;;5026587;28;19913;-80
2022/06/12 14:10:16;;;;;;;;;;;29.80;50.20;;;;;;5036919;28;19909;-81
2022/06/12 14:12:42;;;;;;;;;;;28.90;49.00;;;;;;5034900;28;19913;-80
2022/06/12 14:15:26;;;;;;;;;;;29.40;50.30;;;;;;5030464;28;19945;-81
2022/06/12 14:17:53;;;;;;;;;;;28.60;51.20;;;;;;5034234;28;19917;-81
2022/06/12 14:20:23;;;;;;;;;;;28.50;50.90;;;;;;5029954;28;20312;-78
2022/06/12 14:22:50;;;;;;;;;;;29.10;49.70;;;;;;5030855;28;19963;-80
2022/06/12 14:25:35;;;;;;;;;;;29.90;52.70;;;;;;5033977;28;19909;-81
2022/06/12 14:28:03;;;;;;;;;;;29.90;48.80;;;;;;5035351;28;19909;-80
2022/06/12 14:30:40;;;;;;;;;;;29.70;48.00;;;;;;5035812;28;19913;-80
2022/06/12 14:33:25;;;;;;;;;;;28.70;48.30;;;;;;5030558;28;19906;-80
2022/06/12 14:35:51;;;;;;;;;;;29.60;50.20;;;;;;5029399;28;19913;-80
2022/06/12 14:38:20;;;;;;;;;;;29.80;50.40;;;;;;5036219;28;19939;-80
2022/06/12 14:40:46;;;;;;;;;;;29.40;51.90;;;;;;5033286;28;19932;-81
2022/06/12 14:43:22;;;;;;;;;;;30.10;50.00;;;;;;5032166;28;19913;-80
2022/06/12 14:45:51;;;;;;;;;;;28.60;50.00;;;;;;5033216;28;19918;-80
2022/06/12 14:48:26;;;;;;;;;;;29.10;50.20;;;;;;5032756;28;20164;-81
2022/06/12 14:50:51;;;;;;;;;;;28.80;50.20;;;;;;5030030;28;20001;-82
2022/06/12 14:53:17;;;;;;;;;;;29.10;49.40;;;;;;5036250;28;20409;-81
2022/06/12 14:55:43;;;;;;;;;;;29.00;51.40;;;;;;5030405;28;20095;-80
2022/06/12 14:58:29;;;;;;;;;;;28.80;50.80;;;;;;5022327;28;19952;-82
2022/06/12 15:00:55;;;;;;;;;;;29.50;50.90;;;;;;5027867;28;19931;-81
2022/06/12 15:03:21;;;;;;;;;;;28.60;49.40;;;;;;5030158;28;19909;-80
2022/06/12 15:05:46;;;;;;;;;;;28.80;48.30;;;;;;5023942;28;19939;-81
2022/06/12 15:08:12;;;;;;;;;;;29.70;50.70;;;;;;5034358;28;19909;-79
2022/06/12 15:10:38;;;;;;;;;;;28.60;50.70;;;;;;5039088;28;19905;-81
2022/06/12 15:13:04;;;;;;;;;;;;;;;;;;5038145;28;19994;-79